Time;durP1;ratioP1;P1;durP2;ratioP2;P2;SDS_P1;SDS_P2;PMS_P1;PMS_P2;Temp;Humidity;BMP_temperature;BMP_pressure;BME280_temperature;BME280_humidity;BME280_pressure;Samples;Min_cycle;Max_cycle;Signal;HPM_P1;HPM_P2
2021/11/03 00:02:14;;;;;;;14.47;11.53;;;6.90;99.90;;;;;;4979058;28;20251;-86
2021/11/03 00:04:42;;;;;;;16.63;11.47;;;6.90;99.90;;;;;;4974561;28;20212;-86
2021/11/03 00:07:11;;;;;;;13.93;11.37;;;6.90;99.90;;;;;;4975381;28;20235;-86
2021/11/03 00:09:38;;;;;;;12.13;10.10;;;6.90;99.90;;;;;;4976029;28;20212;-86
2021/11/03 00:12:11;;;;;;;11.20;9.20;;;6.80;99.90;;;;;;4974434;28;20201;-87
2021/11/03 00:14:38;;;;;;;13.80;9.90;;;6.80;99.90;;;;;;4975527;28;20205;-88
2021/11/03 00:17:05;;;;;;;12.97;9.30;;;6.70;99.90;;;;;;4984601;28;20215;-87
2021/11/03 00:19:32;;;;;;;13.47;9.47;;;6.70;99.90;;;;;;4993675;28;20242;-86
2021/11/03 00:21:59;;;;;;;13.23;10.30;;;6.70;99.90;;;;;;4976562;28;20204;-88
2021/11/03 00:24:26;;;;;;;11.70;9.10;;;6.60;99.90;;;;;;4975318;28;20197;-87
2021/11/03 00:26:53;;;;;;;13.83;10.83;;;6.60;99.90;;;;;;4981443;28;20211;-83
2021/11/03 00:29:21;;;;;;;14.23;11.23;;;6.60;99.90;;;;;;4995052;28;20211;-86
2021/11/03 00:31:48;;;;;;;13.17;10.60;;;6.60;99.90;;;;;;4980062;28;20219;-87
2021/11/03 00:34:14;;;;;;;16.00;10.73;;;6.50;99.90;;;;;;4989561;28;20204;-88
2021/11/03 00:36:41;;;;;;;14.80;10.53;;;6.50;99.90;;;;;;4987673;28;20215;-87
2021/11/03 00:39:08;;;;;;;12.53;10.67;;;6.50;99.90;;;;;;4979167;28;20209;-86
2021/11/03 00:41:35;;;;;;;14.10;11.07;;;6.50;99.90;;;;;;4985076;28;20533;-86
2021/11/03 00:44:01;;;;;;;13.87;11.40;;;6.50;99.90;;;;;;4983118;28;20227;-86
2021/11/03 00:46:30;;;;;;;15.60;11.80;;;6.40;99.90;;;;;;4980499;28;20224;-86
2021/11/03 00:48:56;;;;;;;13.50;11.10;;;6.40;99.90;;;;;;4978658;28;20216;-87
2021/11/03 00:51:23;;;;;;;15.40;12.43;;;6.40;99.90;;;;;;4973213;28;20220;-85
2021/11/03 00:53:50;;;;;;;15.27;12.50;;;6.40;99.90;;;;;;4973670;28;20212;-86
2021/11/03 00:56:17;;;;;;;20.20;14.63;;;6.40;99.90;;;;;;4974234;28;20260;-88
2021/11/03 00:58:44;;;;;;;19.70;14.63;;;6.40;99.90;;;;;;4974766;28;20224;-87
2021/11/03 01:01:10;;;;;;;17.77;13.90;;;6.40;99.90;;;;;;5027687;23;20629;-87
2021/11/03 01:03:39;;;;;;;19.47;14.17;;;6.30;99.90;;;;;;5053673;28;20256;-87
2021/11/03 01:06:06;;;;;;;19.10;13.57;;;6.30;99.90;;;;;;5053043;28;20202;-87
2021/11/03 01:08:33;;;;;;;19.77;14.83;;;6.30;99.90;;;;;;5051894;28;20224;-86
2021/11/03 01:11:00;;;;;;;17.10;13.00;;;6.30;99.90;;;;;;5053098;28;20198;-85
2021/11/03 01:13:28;;;;;;;18.00;13.83;;;6.30;99.90;;;;;;5037245;28;20213;-85
2021/11/03 01:15:57;;;;;;;18.77;13.97;;;6.30;99.90;;;;;;5032642;28;20214;-84
2021/11/03 01:18:25;;;;;;;19.33;14.23;;;6.30;99.90;;;;;;5031695;28;20214;-87
2021/11/03 01:20:54;;;;;;;18.63;14.13;;;6.30;99.90;;;;;;5029887;28;20862;-88
2021/11/03 01:23:22;;;;;;;18.17;12.90;;;6.20;99.90;;;;;;5028338;28;20199;-87
2021/11/03 01:25:50;;;;;;;21.00;14.87;;;6.20;99.90;;;;;;5058614;28;20212;-87
2021/11/03 01:28:18;;;;;;;17.77;14.33;;;6.20;99.90;;;;;;5073790;28;20201;-87
2021/11/03 01:30:45;;;;;;;21.33;15.83;;;6.20;99.90;;;;;;5073984;28;20204;-88
2021/11/03 01:33:13;;;;;;;19.70;15.00;;;6.20;99.90;;;;;;5060585;28;20210;-87
2021/11/03 01:35:40;;;;;;;21.10;15.77;;;6.20;99.90;;;;;;5052764;28;20550;-87
2021/11/03 01:38:09;;;;;;;22.43;17.30;;;6.30;99.90;;;;;;5052870;28;20217;-87
2021/11/03 01:40:38;;;;;;;24.13;19.17;;;6.30;99.90;;;;;;5052839;28;20222;-88
2021/11/03 01:43:06;;;;;;;22.00;16.67;;;6.40;99.90;;;;;;5038899;28;20517;-88
2021/11/03 01:45:34;;;;;;;25.50;19.07;;;6.40;99.90;;;;;;5048720;28;20285;-87
2021/11/03 01:48:04;;;;;;;23.27;17.90;;;6.40;99.90;;;;;;5046318;28;20221;-86
2021/11/03 01:50:36;;;;;;;23.50;16.80;;;6.50;99.90;;;;;;5042507;28;20218;-87
2021/11/03 01:53:10;;;;;;;24.13;18.13;;;6.50;99.90;;;;;;5052681;28;20186;-88
2021/11/03 01:55:44;;;;;;;27.60;19.67;;;6.50;99.90;;;;;;5050857;28;20206;-85
2021/11/03 01:58:15;;;;;;;21.80;17.27;;;6.50;99.90;;;;;;5051149;28;20540;-87
2021/11/03 02:00:45;;;;;;;23.83;17.07;;;6.40;99.90;;;;;;5051784;28;20542;-86
2021/11/03 02:03:17;;;;;;;22.60;17.03;;;6.40;99.90;;;;;;5048953;28;20213;-87
2021/11/03 02:05:47;;;;;;;23.13;16.83;;;6.40;99.90;;;;;;5049750;28;20202;-86
2021/11/03 02:08:15;;;;;;;20.27;16.43;;;6.40;99.90;;;;;;5052055;28;20194;-87
2021/11/03 02:10:42;;;;;;;20.70;15.63;;;6.30;99.90;;;;;;5052933;28;20206;-88
2021/11/03 02:13:12;;;;;;;24.60;17.20;;;6.40;99.90;;;;;;5051853;28;20213;-86
2021/11/03 02:15:40;;;;;;;23.17;17.50;;;6.30;99.90;;;;;;5052016;28;20193;-86
2021/11/03 02:18:11;;;;;;;22.43;17.40;;;6.30;99.90;;;;;;5050937;28;20197;-86
2021/11/03 02:20:40;;;;;;;21.33;16.47;;;6.30;99.90;;;;;;5051260;28;20269;-84
2021/11/03 02:23:18;;;;;;;23.57;17.17;;;6.30;99.90;;;;;;5052216;28;20218;-85
2021/11/03 02:25:51;;;;;;;25.17;17.83;;;6.30;99.90;;;;;;5067820;28;20205;-86
2021/11/03 02:28:18;;;;;;;19.73;15.57;;;6.30;99.90;;;;;;5051051;28;20621;-87
2021/11/03 02:30:46;;;;;;;20.30;15.10;;;6.30;99.90;;;;;;5051512;28;20210;-87
2021/11/03 02:33:18;;;;;;;19.63;15.20;;;6.20;99.90;;;;;;5052248;28;20209;-86
2021/11/03 02:35:51;;;;;;;21.07;15.63;;;6.20;99.90;;;;;;5051610;28;20190;-86
2021/11/03 02:38:26;;;;;;;22.27;16.17;;;6.10;99.90;;;;;;5050877;28;20677;-86
2021/11/03 02:40:57;;;;;;;21.97;16.63;;;6.20;99.90;;;;;;5068565;28;20635;-88
2021/11/03 02:43:28;;;;;;;22.23;17.23;;;6.10;99.90;;;;;;5070948;28;20243;-83
2021/11/03 02:45:57;;;;;;;20.70;16.00;;;6.10;99.90;;;;;;5057987;28;20202;-86
2021/11/03 02:48:27;;;;;;;20.47;16.17;;;6.10;99.90;;;;;;5057544;28;20209;-86
2021/11/03 02:51:04;;;;;;;18.10;14.90;;;6.00;99.90;;;;;;5071372;28;20221;-87
2021/11/03 02:53:33;;;;;;;20.50;16.07;;;6.00;99.90;;;;;;5071465;28;20189;-88
2021/11/03 02:56:01;;;;;;;19.37;15.87;;;6.00;99.90;;;;;;5070579;28;20415;-87
2021/11/03 02:58:28;;;;;;;18.97;15.17;;;6.10;99.90;;;;;;5059740;28;20212;-87
2021/11/03 03:00:57;;;;;;;21.80;15.13;;;6.00;99.90;;;;;;5050397;28;20325;-88
2021/11/03 03:03:24;;;;;;;18.80;15.17;;;6.00;99.90;;;;;;5051452;28;20206;-87
2021/11/03 03:05:56;;;;;;;20.63;16.80;;;6.00;99.90;;;;;;5051239;28;20197;-86
2021/11/03 03:08:24;;;;;;;22.90;15.87;;;6.00;99.90;;;;;;5050706;28;20213;-87
2021/11/03 03:10:51;;;;;;;20.40;15.77;;;6.00;99.90;;;;;;5052147;28;20209;-87
2021/11/03 03:13:19;;;;;;;20.87;16.37;;;6.00;99.90;;;;;;5070703;28;20209;-88
2021/11/03 03:15:46;;;;;;;23.27;16.97;;;6.00;99.90;;;;;;5062652;28;20233;-84
2021/11/03 03:18:12;;;;;;;22.47;15.90;;;6.00;99.90;;;;;;5050958;28;20206;-89
2021/11/03 03:20:40;;;;;;;20.20;15.20;;;6.00;99.90;;;;;;5050917;28;20222;-88
2021/11/03 03:23:06;;;;;;;20.83;16.63;;;6.00;99.90;;;;;;5051142;28;20202;-87
2021/11/03 03:25:35;;;;;;;20.03;15.57;;;6.10;99.90;;;;;;5072388;28;20204;-87
2021/11/03 03:28:02;;;;;;;18.83;15.17;;;6.10;99.90;;;;;;5090709;28;20304;-87
2021/11/03 03:30:31;;;;;;;21.37;17.10;;;6.10;99.90;;;;;;5090367;28;20482;-88
2021/11/03 03:32:58;;;;;;;20.10;15.03;;;6.20;99.90;;;;;;5091009;28;20208;-86
2021/11/03 03:35:24;;;;;;;22.17;17.03;;;6.10;99.90;;;;;;5055630;28;20214;-87
2021/11/03 03:37:51;;;;;;;16.60;14.47;;;6.20;99.90;;;;;;5049488;28;20194;-87
2021/11/03 03:40:18;;;;;;;19.00;15.77;;;6.20;99.90;;;;;;5051258;28;20205;-86
2021/11/03 03:42:45;;;;;;;21.77;16.73;;;6.20;99.90;;;;;;5052226;28;20209;-89
2021/11/03 03:45:12;;;;;;;21.10;16.10;;;6.20;99.90;;;;;;5051225;28;20205;-87
2021/11/03 03:47:41;;;;;;;21.37;17.73;;;6.20;99.90;;;;;;5053903;28;20194;-87
2021/11/03 03:50:09;;;;;;;20.73;16.03;;;6.20;99.90;;;;;;5069486;28;20225;-85
2021/11/03 03:52:36;;;;;;;20.10;15.47;;;6.20;99.90;;;;;;5070342;28;20213;-88
2021/11/03 03:55:04;;;;;;;18.93;14.87;;;6.30;99.90;;;;;;5054188;28;20193;-88
2021/11/03 03:57:31;;;;;;;19.13;14.50;;;6.30;99.90;;;;;;5053989;28;20213;-86
2021/11/03 03:59:57;;;;;;;17.40;14.43;;;6.30;99.90;;;;;;5054277;28;20202;-86
2021/11/03 04:02:24;;;;;;;19.70;14.97;;;6.30;99.90;;;;;;5066081;28;20905;-85
2021/11/03 04:04:53;;;;;;;18.63;14.80;;;6.30;99.90;;;;;;5073638;28;20647;-87
2021/11/03 04:07:20;;;;;;;18.33;14.97;;;6.30;99.90;;;;;;5073537;28;20507;-87
2021/11/03 04:09:46;;;;;;;19.87;15.27;;;6.20;99.90;;;;;;5056341;28;20206;-86
2021/11/03 04:12:13;;;;;;;23.30;18.53;;;6.20;99.90;;;;;;5053804;28;20227;-83
2021/11/03 04:14:40;;;;;;;23.87;19.20;;;6.20;99.90;;;;;;5053306;28;20198;-86
2021/11/03 04:17:07;;;;;;;24.83;18.67;;;6.20;99.90;;;;;;5053939;28;20206;-87
2021/11/03 04:19:33;;;;;;;24.53;17.67;;;6.20;99.90;;;;;;5053433;28;20198;-87
2021/11/03 04:22:02;;;;;;;23.80;18.13;;;6.20;99.90;;;;;;5054332;28;20221;-88
2021/11/03 04:24:28;;;;;;;21.87;16.53;;;6.20;99.90;;;;;;5062588;28;20227;-87
2021/11/03 04:26:55;;;;;;;20.57;16.30;;;6.10;99.90;;;;;;5073662;28;20200;-84
2021/11/03 04:29:23;;;;;;;19.80;15.40;;;6.10;99.90;;;;;;5059228;28;20217;-87
2021/11/03 04:31:50;;;;;;;20.70;16.40;;;6.00;99.90;;;;;;5054109;28;20198;-85
2021/11/03 04:34:18;;;;;;;18.90;16.43;;;6.00;99.90;;;;;;5053234;28;20209;-85
2021/11/03 04:36:45;;;;;;;19.10;15.10;;;5.90;99.90;;;;;;5053123;28;20208;-87
2021/11/03 04:39:13;;;;;;;18.67;15.30;;;5.80;99.90;;;;;;5059553;28;20201;-86
2021/11/03 04:41:41;;;;;;;18.63;15.20;;;5.80;99.90;;;;;;5073637;28;20319;-86
2021/11/03 04:44:08;;;;;;;17.47;13.93;;;5.80;99.90;;;;;;5073458;28;20197;-86
2021/11/03 04:46:35;;;;;;;19.80;15.73;;;5.80;99.90;;;;;;5068887;28;20201;-86
2021/11/03 04:49:02;;;;;;;17.77;14.10;;;5.70;99.90;;;;;;5053066;28;20206;-87
2021/11/03 04:51:29;;;;;;;17.07;14.47;;;5.70;99.90;;;;;;5053118;28;20225;-87
2021/11/03 04:53:56;;;;;;;16.90;14.37;;;5.60;99.90;;;;;;5053102;28;20202;-85
2021/11/03 04:56:28;;;;;;;16.53;14.10;;;5.60;99.90;;;;;;5052775;28;20218;-86
2021/11/03 04:58:55;;;;;;;16.50;13.40;;;5.60;99.90;;;;;;5052853;28;20511;-83
2021/11/03 05:01:24;;;;;;;17.20;14.00;;;5.50;99.90;;;;;;5052592;28;20246;-87
2021/11/03 05:03:54;;;;;;;18.50;14.43;;;5.50;99.90;;;;;;5052719;28;20275;-87
2021/11/03 05:06:27;;;;;;;19.23;14.70;;;5.60;99.90;;;;;;5051555;28;20202;-88
2021/11/03 05:08:55;;;;;;;20.57;16.20;;;5.50;99.90;;;;;;5049011;28;20503;-89
2021/11/03 05:11:24;;;;;;;20.67;15.73;;;5.50;99.90;;;;;;5053310;28;20205;-88
2021/11/03 05:13:51;;;;;;;23.00;16.53;;;5.50;99.90;;;;;;5053088;28;20210;-88
2021/11/03 05:16:21;;;;;;;19.33;14.93;;;5.50;99.90;;;;;;5052371;28;20206;-84
2021/11/03 05:18:48;;;;;;;17.97;14.93;;;5.60;99.90;;;;;;5053155;28;20198;-87
2021/11/03 05:21:15;;;;;;;17.47;13.93;;;5.50;99.90;;;;;;5052608;28;20225;-88
2021/11/03 05:23:43;;;;;;;15.50;12.50;;;5.50;99.90;;;;;;5052837;28;20205;-86
2021/11/03 05:26:13;;;;;;;17.27;13.47;;;5.50;99.90;;;;;;5084900;28;20205;-86
2021/11/03 05:28:41;;;;;;;16.40;13.37;;;5.50;99.90;;;;;;5092049;28;20204;-88
2021/11/03 05:31:08;;;;;;;17.70;14.20;;;5.50;99.90;;;;;;5080637;28;20324;-88
2021/11/03 05:33:35;;;;;;;17.47;12.37;;;5.50;99.90;;;;;;5053242;28;20210;-84
2021/11/03 05:36:01;;;;;;;15.83;13.20;;;5.40;99.90;;;;;;5052881;28;20213;-88
2021/11/03 05:38:28;;;;;;;16.93;12.47;;;5.30;99.90;;;;;;5052633;28;20217;-88
2021/11/03 05:40:55;;;;;;;16.53;12.53;;;5.30;99.90;;;;;;5052901;28;20205;-87
2021/11/03 05:43:23;;;;;;;17.00;13.37;;;5.30;99.90;;;;;;5052079;28;20202;-87
2021/11/03 05:45:52;;;;;;;18.90;15.03;;;5.20;99.90;;;;;;5065949;28;20221;-86
2021/11/03 05:48:23;;;;;;;19.33;15.00;;;5.20;99.90;;;;;;5072532;28;20201;-86
2021/11/03 05:50:55;;;;;;;15.53;12.20;;;5.20;99.90;;;;;;5074196;28;20227;-88
2021/11/03 05:53:21;;;;;;;20.97;14.97;;;5.20;99.90;;;;;;5073525;28;20190;-85
2021/11/03 05:55:49;;;;;;;19.03;14.43;;;5.20;99.90;;;;;;5058147;28;20554;-86
2021/11/03 05:58:15;;;;;;;17.17;13.50;;;5.20;99.90;;;;;;5052743;28;20201;-89
2021/11/03 06:00:43;;;;;;;17.63;13.20;;;5.20;99.90;;;;;;5052425;28;20245;-87
2021/11/03 06:03:11;;;;;;;15.73;12.43;;;5.10;99.90;;;;;;5062228;28;20236;-87
2021/11/03 06:05:38;;;;;;;17.40;13.87;;;5.10;99.90;;;;;;5056189;28;20214;-87
2021/11/03 06:08:06;;;;;;;17.47;14.03;;;5.10;99.90;;;;;;5052698;28;20198;-85
2021/11/03 06:10:40;;;;;;;15.93;12.23;;;5.00;99.90;;;;;;5052448;28;20606;-86
2021/11/03 06:13:09;;;;;;;17.00;13.77;;;5.00;99.90;;;;;;5052040;28;20284;-86
2021/11/03 06:15:37;;;;;;;23.33;15.87;;;5.00;99.90;;;;;;5052039;28;20204;-88
2021/11/03 06:18:04;;;;;;;22.63;14.37;;;4.90;99.90;;;;;;5050651;28;20532;-86
2021/11/03 06:20:33;;;;;;;16.23;13.20;;;4.90;99.90;;;;;;5051082;28;20198;-88
2021/11/03 06:23:00;;;;;;;17.23;13.43;;;4.90;99.90;;;;;;5052871;28;20214;-87
2021/11/03 06:25:28;;;;;;;16.97;12.90;;;4.90;99.90;;;;;;5075276;28;20219;-85
2021/11/03 06:27:56;;;;;;;17.10;13.40;;;4.80;99.90;;;;;;5096696;28;20215;-88
2021/11/03 06:30:27;;;;;;;19.40;14.63;;;4.80;99.90;;;;;;5095245;28;20196;-88
2021/11/03 06:32:54;;;;;;;21.57;16.70;;;4.80;99.90;;;;;;5084649;28;20209;-84
2021/11/03 06:35:23;;;;;;;28.80;19.70;;;4.80;99.90;;;;;;5050198;28;20216;-87
2021/11/03 06:37:52;;;;;;;26.23;21.27;;;4.80;99.90;;;;;;5051237;28;20205;-87
2021/11/03 06:40:22;;;;;;;30.97;23.00;;;4.80;99.90;;;;;;5047919;28;20198;-86
2021/11/03 06:42:49;;;;;;;31.57;21.83;;;4.90;99.90;;;;;;5050565;28;20245;-85
2021/11/03 06:45:18;;;;;;;28.03;21.00;;;5.00;99.90;;;;;;5050806;28;20209;-87
2021/11/03 06:47:45;;;;;;;29.40;21.93;;;5.10;99.90;;;;;;5070188;28;20630;-85
2021/11/03 06:50:16;;;;;;;29.13;20.80;;;5.10;99.90;;;;;;5060216;28;20234;-87
2021/11/03 06:52:45;;;;;;;41.23;26.33;;;5.20;99.90;;;;;;5051181;28;20198;-87
2021/11/03 06:55:14;;;;;;;34.27;23.50;;;5.20;99.90;;;;;;5051437;28;20217;-87
2021/11/03 06:57:41;;;;;;;32.77;22.60;;;5.20;99.90;;;;;;5050892;28;20613;-86
2021/11/03 07:00:13;;;;;;;34.37;24.93;;;5.20;99.90;;;;;;5050909;28;20202;-87
2021/11/03 07:02:40;;;;;;;32.23;23.10;;;5.20;99.90;;;;;;5064955;28;20325;-86
2021/11/03 07:05:07;;;;;;;31.37;22.37;;;5.20;99.90;;;;;;5071636;28;20205;-87
2021/11/03 07:07:34;;;;;;;36.77;25.13;;;5.20;99.90;;;;;;5070779;28;20303;-87
2021/11/03 07:10:01;;;;;;;33.33;23.60;;;5.20;99.90;;;;;;5052820;28;20205;-87
2021/11/03 07:12:29;;;;;;;31.10;22.73;;;5.20;99.90;;;;;;5053273;28;20213;-88
2021/11/03 07:14:56;;;;;;;26.50;19.97;;;5.20;99.90;;;;;;5072143;28;20204;-86
2021/11/03 07:17:23;;;;;;;24.13;19.07;;;5.20;99.90;;;;;;5071444;28;20804;-87
2021/11/03 07:19:50;;;;;;;24.20;19.23;;;5.20;99.90;;;;;;5071720;28;20201;-87
2021/11/03 07:22:17;;;;;;;27.00;19.97;;;5.10;99.90;;;;;;5073628;28;20244;-87
2021/11/03 07:24:44;;;;;;;30.97;22.03;;;5.10;99.90;;;;;;5075226;28;20197;-87
2021/11/03 07:27:10;;;;;;;31.10;22.93;;;5.10;99.90;;;;;;5075295;28;20514;-86
2021/11/03 07:29:41;;;;;;;29.03;22.33;;;5.10;99.90;;;;;;5070789;28;20217;-87
2021/11/03 07:32:09;;;;;;;30.70;22.77;;;5.10;99.90;;;;;;5055219;28;20656;-87
2021/11/03 07:34:36;;;;;;;26.07;20.10;;;5.10;99.90;;;;;;5055162;28;20765;-87
2021/11/03 07:37:04;;;;;;;35.97;26.17;;;5.10;99.90;;;;;;5054588;28;20194;-86
2021/11/03 07:39:31;;;;;;;32.90;23.20;;;5.20;99.90;;;;;;5058636;28;20196;-86
2021/11/03 07:41:57;;;;;;;35.87;24.50;;;5.20;99.90;;;;;;5055419;28;20237;-83
2021/11/03 07:44:24;;;;;;;34.83;26.03;;;5.20;99.90;;;;;;5054819;28;20202;-87
2021/11/03 07:46:53;;;;;;;45.53;29.27;;;5.30;99.90;;;;;;5054052;28;20493;-87
2021/11/03 07:49:20;;;;;;;46.40;31.70;;;5.30;99.90;;;;;;5053889;28;20190;-89
2021/11/03 07:51:47;;;;;;;36.73;27.07;;;5.30;99.90;;;;;;5073925;28;20213;-90
2021/11/03 07:54:14;;;;;;;30.80;24.20;;;5.30;99.90;;;;;;5074397;28;20197;-92
2021/11/03 07:56:55;;;;;;;30.67;22.43;;;5.40;99.90;;;;;;5061562;28;20201;-82
2021/11/03 07:59:23;;;;;;;30.43;22.53;;;5.40;99.90;;;;;;5074300;28;20198;-89
2021/11/03 08:01:54;;;;;;;25.93;21.40;;;5.40;99.90;;;;;;5074362;28;20648;-87
2021/11/03 08:04:21;;;;;;;26.97;19.97;;;5.40;99.90;;;;;;5065842;28;20229;-89
2021/11/03 08:06:48;;;;;;;21.93;18.63;;;5.30;99.90;;;;;;5054023;28;20582;-85
2021/11/03 08:09:15;;;;;;;27.67;21.33;;;5.30;99.90;;;;;;5052694;28;20242;-83
2021/11/03 08:11:49;;;;;;;32.33;24.70;;;5.40;99.90;;;;;;5052359;28;20240;-85
2021/11/03 08:14:18;;;;;;;27.43;21.80;;;5.40;99.90;;;;;;5066389;28;20751;-84
2021/11/03 08:16:50;;;;;;;27.07;21.37;;;5.40;99.90;;;;;;5072384;28;20212;-86
2021/11/03 08:19:19;;;;;;;30.03;22.90;;;5.50;99.90;;;;;;5073600;28;20187;-86
2021/11/03 08:21:46;;;;;;;33.23;23.70;;;5.50;99.90;;;;;;5056213;28;20217;-85
2021/11/03 08:24:12;;;;;;;32.70;23.67;;;5.50;99.90;;;;;;5053526;28;20198;-86
2021/11/03 08:26:39;;;;;;;28.00;21.23;;;5.60;99.90;;;;;;5053781;28;20213;-85
2021/11/03 08:29:06;;;;;;;28.43;22.00;;;5.60;99.90;;;;;;5053212;28;20209;-86
2021/11/03 08:31:35;;;;;;;28.57;20.87;;;5.60;99.90;;;;;;5052958;28;20210;-87
2021/11/03 08:34:02;;;;;;;26.97;21.53;;;5.60;99.90;;;;;;5053575;28;20213;-86
2021/11/03 08:36:30;;;;;;;31.67;23.70;;;5.70;99.90;;;;;;5056328;28;20209;-86
2021/11/03 08:38:59;;;;;;;29.07;21.80;;;5.70;99.90;;;;;;5073718;28;20201;-85
2021/11/03 08:41:28;;;;;;;31.50;23.47;;;5.80;99.90;;;;;;5073086;28;20206;-86
2021/11/03 08:43:55;;;;;;;30.43;23.57;;;5.80;99.90;;;;;;5069559;28;20230;-84
2021/11/03 08:46:23;;;;;;;27.97;21.97;;;5.90;99.90;;;;;;5052910;28;20248;-86
2021/11/03 08:48:56;;;;;;;29.73;21.87;;;5.90;99.90;;;;;;5053608;28;20206;-84
2021/11/03 08:51:23;;;;;;;28.27;21.47;;;5.90;99.90;;;;;;5053021;28;20249;-83
2021/11/03 08:53:52;;;;;;;27.90;22.03;;;6.00;99.90;;;;;;5071443;28;20209;-84
2021/11/03 08:56:19;;;;;;;30.87;22.37;;;6.00;99.90;;;;;;5073220;28;20248;-85
2021/11/03 08:58:45;;;;;;;29.57;22.53;;;6.00;99.90;;;;;;5058820;28;20213;-84
2021/11/03 09:01:12;;;;;;;28.50;21.43;;;6.10;99.90;;;;;;5052351;28;20237;-83
2021/11/03 09:03:40;;;;;;;23.60;19.60;;;6.20;99.90;;;;;;5051882;28;20226;-85
2021/11/03 09:06:08;;;;;;;26.73;20.70;;;6.20;99.90;;;;;;5053045;28;20609;-85
2021/11/03 09:08:38;;;;;;;26.07;20.50;;;6.30;99.90;;;;;;5052665;28;20209;-85
2021/11/03 09:11:07;;;;;;;25.57;19.87;;;6.40;99.90;;;;;;5051657;28;20220;-85
2021/11/03 09:13:34;;;;;;;26.93;21.40;;;6.40;99.90;;;;;;5072394;28;20204;-87
2021/11/03 09:16:02;;;;;;;24.37;19.30;;;6.60;99.90;;;;;;5072675;28;20209;-88
2021/11/03 09:18:29;;;;;;;24.37;19.03;;;6.70;99.90;;;;;;5071444;28;20189;-85
2021/11/03 09:20:57;;;;;;;24.70;20.10;;;6.80;99.90;;;;;;5072185;28;20254;-84
2021/11/03 09:23:25;;;;;;;24.60;18.83;;;6.90;99.90;;;;;;5067139;28;20220;-85
2021/11/03 09:25:53;;;;;;;23.33;18.37;;;7.00;99.90;;;;;;5062132;28;20205;-84
2021/11/03 09:28:23;;;;;;;22.40;17.50;;;7.10;99.90;;;;;;5075368;28;20876;-84
2021/11/03 09:30:51;;;;;;;21.90;17.63;;;7.10;99.90;;;;;;5080560;28;20216;-84
2021/11/03 09:33:17;;;;;;;21.47;16.43;;;7.30;99.90;;;;;;5083076;28;20202;-83
2021/11/03 09:35:49;;;;;;;18.87;15.43;;;7.30;99.90;;;;;;5073199;28;20208;-84
2021/11/03 09:38:18;;;;;;;19.77;15.47;;;7.40;99.90;;;;;;5079423;28;20278;-84
2021/11/03 09:40:50;;;;;;;19.67;15.10;;;7.40;99.90;;;;;;5059588;28;20209;-82
2021/11/03 09:43:28;;;;;;;20.27;16.43;;;7.50;99.90;;;;;;5069528;28;20244;-85
2021/11/03 09:45:56;;;;;;;21.70;16.07;;;7.60;99.90;;;;;;5063963;28;20312;-93
2021/11/03 09:48:36;;;;;;;21.47;17.30;;;7.70;99.90;;;;;;5065767;28;20221;-87
2021/11/03 09:51:13;;;;;;;21.43;16.33;;;7.90;99.90;;;;;;5082313;28;20244;-87
2021/11/03 09:53:45;;;;;;;19.63;15.20;;;8.00;99.90;;;;;;5080169;28;20219;-86
2021/11/03 09:56:17;;;;;;;20.83;14.93;;;8.20;99.90;;;;;;5065872;28;20860;-86
2021/11/03 09:58:55;;;;;;;23.37;16.83;;;8.40;99.90;;;;;;5079046;28;20204;-80
2021/11/03 10:01:43;;;;;;;19.70;14.83;;;8.50;99.90;;;;;;5075992;28;20233;-83
2021/11/03 10:04:27;;;;;;;19.00;14.43;;;8.70;99.90;;;;;;5070590;28;20229;-84
2021/11/03 10:07:00;;;;;;;16.20;13.13;;;8.80;99.90;;;;;;5062081;28;20265;-87
2021/11/03 10:09:27;;;;;;;22.50;16.43;;;9.00;99.90;;;;;;5070265;28;20200;-88
2021/11/03 10:11:55;;;;;;;23.17;17.33;;;9.10;99.90;;;;;;5072011;28;20216;-87
2021/11/03 10:14:25;;;;;;;22.20;15.70;;;9.20;99.90;;;;;;5068024;28;20312;-88
2021/11/03 10:16:56;;;;;;;21.50;16.63;;;9.30;99.90;;;;;;5071182;28;20212;-87
2021/11/03 10:19:30;;;;;;;20.80;14.90;;;9.50;99.90;;;;;;5071634;28;20209;-86
2021/11/03 10:22:00;;;;;;;18.17;13.30;;;9.70;99.90;;;;;;5072574;28;20208;-86
2021/11/03 10:24:37;;;;;;;15.50;11.60;;;9.80;99.90;;;;;;5071650;28;20227;-87
2021/11/03 10:27:17;;;;;;;12.67;10.00;;;9.90;99.90;;;;;;5070941;28;20194;-85
2021/11/03 10:29:49;;;;;;;14.00;10.60;;;10.10;99.90;;;;;;5052488;28;20194;-82
2021/11/03 10:32:25;;;;;;;18.93;12.97;;;10.10;99.90;;;;;;5050786;28;20234;-83
2021/11/03 10:35:23;;;;;;;12.63;10.40;;;10.20;99.90;;;;;;5050818;28;20625;-86
2021/11/03 10:37:57;;;;;;;13.53;10.77;;;10.30;99.90;;;;;;5051471;28;20229;-85
2021/11/03 10:40:28;;;;;;;18.17;10.80;;;10.40;99.90;;;;;;5051609;28;20189;-86
2021/11/03 10:43:00;;;;;;;13.83;9.37;;;10.50;99.90;;;;;;5051759;28;20228;-86
2021/11/03 10:45:31;;;;;;;9.60;7.23;;;10.60;99.90;;;;;;5050531;28;20201;-85
2021/11/03 10:48:13;;;;;;;9.10;5.93;;;10.70;99.90;;;;;;5051145;28;20213;-87
2021/11/03 10:50:44;;;;;;;11.53;5.43;;;10.80;99.90;;;;;;5051193;28;20296;-83
2021/11/03 10:53:21;;;;;;;5.57;4.37;;;10.80;99.90;;;;;;5062529;28;20220;-83
2021/11/03 10:55:57;;;;;;;8.47;4.50;;;10.80;99.90;;;;;;5066402;28;20188;-86
2021/11/03 10:58:27;;;;;;;5.07;4.10;;;10.80;99.90;;;;;;5074625;28;20212;-84
2021/11/03 11:01:25;;;;;;;4.00;3.40;;;10.80;99.90;;;;;;5074617;28;20236;-82
2021/11/03 11:03:56;;;;;;;6.67;3.30;;;10.80;99.90;;;;;;5074518;28;20221;-84
2021/11/03 11:06:27;;;;;;;7.97;3.70;;;10.70;99.90;;;;;;5073727;28;20197;-81
2021/11/03 11:08:58;;;;;;;5.30;3.40;;;10.70;99.90;;;;;;5053692;28;20220;-82
2021/11/03 11:11:29;;;;;;;3.30;2.70;;;10.70;99.90;;;;;;5054034;28;20189;-83
2021/11/03 11:14:00;;;;;;;2.83;2.10;;;10.70;99.90;;;;;;5055295;28;20896;-86
2021/11/03 11:16:37;;;;;;;6.57;2.80;;;10.60;99.90;;;;;;5055135;28;20628;-85
2021/11/03 11:19:24;;;;;;;3.10;2.13;;;10.60;99.90;;;;;;5052259;28;20194;-85
2021/11/03 11:21:57;;;;;;;3.30;2.00;;;10.60;99.90;;;;;;5055970;28;20209;-86
2021/11/03 11:24:31;;;;;;;3.00;1.60;;;10.60;99.90;;;;;;5055893;28;20717;-87
2021/11/03 11:27:07;;;;;;;2.30;1.40;;;10.60;99.90;;;;;;5055039;28;20182;-85
2021/11/03 11:29:46;;;;;;;2.93;1.70;;;10.60;99.90;;;;;;5055557;28;20205;-86
2021/11/03 11:32:30;;;;;;;2.80;1.27;;;10.60;99.90;;;;;;5054847;28;20295;-82
2021/11/03 11:35:05;;;;;;;1.10;0.90;;;10.60;99.90;;;;;;5073609;28;20556;-86
2021/11/03 11:37:46;;;;;;;2.27;1.10;;;10.70;99.90;;;;;;5078271;28;20204;-88
2021/11/03 11:40:31;;;;;;;2.57;1.53;;;10.70;99.90;;;;;;5065036;28;20198;-87
2021/11/03 11:43:02;;;;;;;3.23;0.90;;;10.80;99.90;;;;;;5052884;28;20226;-86
2021/11/03 11:45:31;;;;;;;2.10;0.80;;;10.80;99.90;;;;;;5052941;28;20559;-87
2021/11/03 11:48:02;;;;;;;2.20;0.70;;;10.80;99.90;;;;;;5070893;28;20224;-85
2021/11/03 11:50:39;;;;;;;2.77;0.80;;;10.80;99.90;;;;;;5076138;28;20217;-83
2021/11/03 11:53:21;;;;;;;1.63;0.83;;;10.80;99.90;;;;;;5073864;28;20201;-83
2021/11/03 11:56:12;;;;;;;3.33;2.00;;;10.90;99.90;;;;;;5073628;28;20204;-83
2021/11/03 11:58:41;;;;;;;3.10;2.13;;;11.10;99.90;;;;;;5051338;28;20209;-81
2021/11/03 12:01:28;;;;;;;3.40;2.07;;;11.10;99.90;;;;;;5051492;28;20230;-80
2021/11/03 12:04:37;;;;;;;2.23;1.87;;;11.00;99.90;;;;;;5051193;28;20209;-83
2021/11/03 12:07:16;;;;;;;3.07;1.60;;;10.80;99.90;;;;;;5050972;28;20277;-80
2021/11/03 12:09:48;;;;;;;4.10;2.30;;;10.70;99.90;;;;;;5051010;28;20205;-83
2021/11/03 12:12:23;;;;;;;3.10;1.83;;;10.60;99.90;;;;;;5052696;28;20202;-80
2021/11/03 12:14:52;;;;;;;2.10;1.70;;;10.50;99.90;;;;;;5044531;28;20375;-83
2021/11/03 12:17:40;;;;;;;3.17;1.97;;;10.50;99.90;;;;;;5051071;28;20213;-81
2021/11/03 12:20:39;;;;;;;4.00;1.83;;;10.50;99.90;;;;;;5051384;28;20202;-84
2021/11/03 12:23:43;;;;;;;4.73;2.30;;;10.60;99.90;;;;;;5051455;28;20605;-82
2021/11/03 12:26:42;;;;;;;2.20;1.90;;;10.70;99.90;;;;;;5051314;28;20201;-81
2021/11/03 12:29:34;;;;;;;3.17;1.80;;;10.70;99.90;;;;;;5047428;28;20224;-85
2021/11/03 12:32:03;;;;;;;2.43;1.90;;;10.80;99.90;;;;;;5044952;28;20808;-82
2021/11/03 12:34:33;;;;;;;2.17;1.70;;;10.80;99.90;;;;;;5050878;28;20209;-85
2021/11/03 12:37:28;;;;;;;1.60;1.50;;;10.80;99.90;;;;;;5049819;28;20213;-84
2021/11/03 12:40:25;;;;;;;2.07;1.40;;;10.80;99.90;;;;;;5051576;28;20204;-82
2021/11/03 12:43:14;;;;;;;3.30;1.60;;;10.80;99.90;;;;;;5042639;28;20613;-83
2021/11/03 12:45:51;;;;;;;2.77;1.47;;;10.80;99.90;;;;;;5050500;28;20293;-83
2021/11/03 12:48:22;;;;;;;1.97;1.63;;;10.70;99.90;;;;;;5051714;28;20671;-81
2021/11/03 12:50:49;;;;;;;3.03;1.60;;;10.70;99.90;;;;;;5068948;28;20244;-82
2021/11/03 12:53:19;;;;;;;2.40;1.57;;;10.60;99.90;;;;;;5070433;28;20573;-81
2021/11/03 12:55:53;;;;;;;1.80;1.50;;;10.70;99.90;;;;;;5053710;28;20214;-79